sensor_id;sensor_type;location;lat;lon;timestamp;P1;durP1;ratioP1;P2;durP2;ratioP2
1533;SDS011;760;48.822;9.304;2023-03-03T05:06:30;18.83;;;12.68;;
1533;SDS011;760;48.822;9.304;2023-03-03T05:08:56;28.40;;;14.50;;
1533;SDS011;760;48.822;9.304;2023-03-03T05:11:22;29.03;;;14.47;;
1533;SDS011;760;48.822;9.304;2023-03-03T05:13:47;26.40;;;14.93;;
1533;SDS011;760;48.822;9.304;2023-03-03T05:16:13;25.73;;;17.03;;
1533;SDS011;760;48.822;9.304;2023-03-03T05:18:38;22.93;;;12.80;;
1533;SDS011;760;48.822;9.304;2023-03-03T05:21:04;19.60;;;13.30;;
1533;SDS011;760;48.822;9.304;2023-03-03T05:23:30;23.80;;;14.80;;
1533;SDS011;760;48.822;9.304;2023-03-03T05:25:55;19.87;;;14.33;;
1533;SDS011;760;48.822;9.304;2023-03-03T05:28:21;20.70;;;12.67;;
1533;SDS011;760;48.822;9.304;2023-03-03T05:30:47;19.53;;;13.67;;
1533;SDS011;760;48.822;9.304;2023-03-03T05:33:13;20.77;;;11.77;;
1533;SDS011;760;48.822;9.304;2023-03-03T05:35:41;20.08;;;11.32;;
1533;SDS011;760;48.822;9.304;2023-03-03T05:38:07;25.05;;;14.02;;
1533;SDS011;760;48.822;9.304;2023-03-03T05:40:32;25.10;;;14.77;;
1533;SDS011;760;48.822;9.304;2023-03-03T05:42:58;24.03;;;13.83;;
1533;SDS011;760;48.822;9.304;2023-03-03T05:45:24;19.70;;;13.50;;
1533;SDS011;760;48.822;9.304;2023-03-03T05:47:50;19.70;;;11.87;;
1533;SDS011;760;48.822;9.304;2023-03-03T05:50:16;19.10;;;13.13;;
1533;SDS011;760;48.822;9.304;2023-03-03T05:52:43;25.65;;;14.05;;
1533;SDS011;760;48.822;9.304;2023-03-03T05:55:09;21.00;;;12.33;;
1533;SDS011;760;48.822;9.304;2023-03-03T05:57:35;22.52;;;13.50;;
1533;SDS011;760;48.822;9.304;2023-03-03T06:00:04;22.97;;;14.43;;
1533;SDS011;760;48.822;9.304;2023-03-03T06:02:31;19.05;;;12.98;;
1533;SDS011;760;48.822;9.304;2023-03-03T06:04:56;24.03;;;13.10;;
1533;SDS011;760;48.822;9.304;2023-03-03T06:07:22;22.50;;;12.00;;
1533;SDS011;760;48.822;9.304;2023-03-03T06:09:47;20.70;;;13.20;;
1533;SDS011;760;48.822;9.304;2023-03-03T06:12:13;22.57;;;13.27;;
1533;SDS011;760;48.822;9.304;2023-03-03T06:14:38;32.00;;;15.07;;
1533;SDS011;760;48.822;9.304;2023-03-03T06:17:04;28.40;;;14.00;;
1533;SDS011;760;48.822;9.304;2023-03-03T06:19:30;27.37;;;13.90;;
1533;SDS011;760;48.822;9.304;2023-03-03T06:21:56;22.83;;;12.82;;
1533;SDS011;760;48.822;9.304;2023-03-03T06:24:22;26.90;;;15.77;;
1533;SDS011;760;48.822;9.304;2023-03-03T06:26:49;21.40;;;13.20;;
1533;SDS011;760;48.822;9.304;2023-03-03T06:29:15;25.38;;;13.75;;
1533;SDS011;760;48.822;9.304;2023-03-03T06:31:41;16.57;;;12.20;;
1533;SDS011;760;48.822;9.304;2023-03-03T06:34:07;20.95;;;14.05;;
1533;SDS011;760;48.822;9.304;2023-03-03T06:36:33;25.00;;;14.33;;
1533;SDS011;760;48.822;9.304;2023-03-03T06:38:58;23.57;;;15.07;;
1533;SDS011;760;48.822;9.304;2023-03-03T06:41:25;26.83;;;16.05;;
1533;SDS011;760;48.822;9.304;2023-03-03T06:43:50;23.60;;;12.70;;
1533;SDS011;760;48.822;9.304;2023-03-03T06:46:16;22.73;;;14.53;;
1533;SDS011;760;48.822;9.304;2023-03-03T06:48:42;23.63;;;14.67;;
1533;SDS011;760;48.822;9.304;2023-03-03T06:51:30;19.90;;;11.90;;
1533;SDS011;760;48.822;9.304;2023-03-03T06:56:58;22.70;;;13.10;;
1533;SDS011;760;48.822;9.304;2023-03-03T06:59:27;21.88;;;12.35;;
1533;SDS011;760;48.822;9.304;2023-03-03T07:01:53;22.73;;;14.87;;
1533;SDS011;760;48.822;9.304;2023-03-03T07:06:45;20.10;;;12.20;;
1533;SDS011;760;48.822;9.304;2023-03-03T07:09:14;22.90;;;13.47;;
1533;SDS011;760;48.822;9.304;2023-03-03T07:11:47;20.17;;;15.13;;
1533;SDS011;760;48.822;9.304;2023-03-03T07:14:15;22.52;;;15.80;;
1533;SDS011;760;48.822;9.304;2023-03-03T07:16:42;25.35;;;13.43;;
1533;SDS011;760;48.822;9.304;2023-03-03T07:19:16;22.37;;;13.77;;
1533;SDS011;760;48.822;9.304;2023-03-03T07:21:46;20.77;;;14.77;;
1533;SDS011;760;48.822;9.304;2023-03-03T07:24:17;27.03;;;14.53;;
1533;SDS011;760;48.822;9.304;2023-03-03T07:26:46;22.98;;;14.27;;
1533;SDS011;760;48.822;9.304;2023-03-03T07:29:22;21.93;;;13.23;;
1533;SDS011;760;48.822;9.304;2023-03-03T07:31:53;21.15;;;13.77;;
1533;SDS011;760;48.822;9.304;2023-03-03T07:34:40;16.80;;;12.15;;
1533;SDS011;760;48.822;9.304;2023-03-03T07:37:15;22.45;;;13.65;;
1533;SDS011;760;48.822;9.304;2023-03-03T07:39:46;19.45;;;13.88;;
1533;SDS011;760;48.822;9.304;2023-03-03T07:42:24;28.33;;;14.52;;
1533;SDS011;760;48.822;9.304;2023-03-03T07:44:53;20.30;;;13.27;;
1533;SDS011;760;48.822;9.304;2023-03-03T07:47:30;23.05;;;12.20;;
1533;SDS011;760;48.822;9.304;2023-03-03T07:50:09;17.15;;;13.00;;
1533;SDS011;760;48.822;9.304;2023-03-03T07:52:41;17.20;;;12.00;;
1533;SDS011;760;48.822;9.304;2023-03-03T07:58:05;21.88;;;13.27;;
1533;SDS011;760;48.822;9.304;2023-03-03T08:03:49;19.23;;;12.65;;
1533;SDS011;760;48.822;9.304;2023-03-03T08:09:00;15.27;;;12.00;;
1533;SDS011;760;48.822;9.304;2023-03-03T08:11:47;18.52;;;14.05;;
1533;SDS011;760;48.822;9.304;2023-03-03T08:14:18;18.83;;;12.45;;
1533;SDS011;760;48.822;9.304;2023-03-03T08:16:51;16.58;;;11.18;;
1533;SDS011;760;48.822;9.304;2023-03-03T08:19:17;13.40;;;10.30;;
1533;SDS011;760;48.822;9.304;2023-03-03T08:21:43;13.07;;;10.80;;
1533;SDS011;760;48.822;9.304;2023-03-03T08:24:10;17.60;;;12.87;;
1533;SDS011;760;48.822;9.304;2023-03-03T08:26:35;17.23;;;12.03;;
1533;SDS011;760;48.822;9.304;2023-03-03T08:29:01;17.40;;;12.20;;
1533;SDS011;760;48.822;9.304;2023-03-03T08:31:27;17.33;;;12.57;;
1533;SDS011;760;48.822;9.304;2023-03-03T08:33:53;22.37;;;13.37;;
1533;SDS011;760;48.822;9.304;2023-03-03T08:36:19;19.07;;;13.70;;
1533;SDS011;760;48.822;9.304;2023-03-03T08:38:45;15.93;;;12.87;;
1533;SDS011;760;48.822;9.304;2023-03-03T08:41:11;19.63;;;13.27;;
1533;SDS011;760;48.822;9.304;2023-03-03T08:43:37;16.20;;;11.93;;
1533;SDS011;760;48.822;9.304;2023-03-03T08:46:03;18.40;;;11.93;;
1533;SDS011;760;48.822;9.304;2023-03-03T08:48:30;21.67;;;12.97;;
1533;SDS011;760;48.822;9.304;2023-03-03T08:50:55;16.30;;;12.30;;
1533;SDS011;760;48.822;9.304;2023-03-03T08:53:21;18.73;;;12.90;;
1533;SDS011;760;48.822;9.304;2023-03-03T08:55:47;16.80;;;13.83;;
1533;SDS011;760;48.822;9.304;2023-03-03T08:58:14;16.07;;;13.00;;
1533;SDS011;760;48.822;9.304;2023-03-03T09:00:41;17.60;;;12.90;;
1533;SDS011;760;48.822;9.304;2023-03-03T09:03:06;19.40;;;14.30;;
1533;SDS011;760;48.822;9.304;2023-03-03T09:05:33;17.13;;;12.93;;
1533;SDS011;760;48.822;9.304;2023-03-03T09:07:59;17.90;;;13.10;;
1533;SDS011;760;48.822;9.304;2023-03-03T09:10:26;21.53;;;12.50;;
1533;SDS011;760;48.822;9.304;2023-03-03T09:12:53;18.17;;;12.00;;
1533;SDS011;760;48.822;9.304;2023-03-03T09:17:58;20.50;;;14.13;;
1533;SDS011;760;48.822;9.304;2023-03-03T09:20:40;20.57;;;13.60;;
1533;SDS011;760;48.822;9.304;2023-03-03T09:26:10;16.43;;;12.47;;
1533;SDS011;760;48.822;9.304;2023-03-03T09:28:47;16.50;;;12.40;;
1533;SDS011;760;48.822;9.304;2023-03-03T09:31:20;18.07;;;13.13;;
1533;SDS011;760;48.822;9.304;2023-03-03T09:33:59;17.60;;;13.03;;
1533;SDS011;760;48.822;9.304;2023-03-03T09:36:29;22.10;;;13.27;;
1533;SDS011;760;48.822;9.304;2023-03-03T09:39:10;19.50;;;15.20;;
1533;SDS011;760;48.822;9.304;2023-03-03T09:44:21;22.60;;;14.63;;
1533;SDS011;760;48.822;9.304;2023-03-03T09:47:12;18.17;;;13.03;;
1533;SDS011;760;48.822;9.304;2023-03-03T10:04:19;20.50;;;13.10;;
1533;SDS011;760;48.822;9.304;2023-03-03T10:12:24;16.13;;;13.27;;
1533;SDS011;760;48.822;9.304;2023-03-03T10:20:23;18.97;;;14.17;;
1533;SDS011;760;48.822;9.304;2023-03-03T10:30:31;25.30;;;14.27;;
1533;SDS011;760;48.822;9.304;2023-03-03T10:38:45;20.30;;;14.77;;
1533;SDS011;760;48.822;9.304;2023-03-03T10:44:39;18.13;;;14.03;;
1533;SDS011;760;48.822;9.304;2023-03-03T11:18:05;19.50;;;13.50;;
1533;SDS011;760;48.822;9.304;2023-03-03T11:26:40;16.73;;;12.40;;
1533;SDS011;760;48.822;9.304;2023-03-03T11:37:42;18.97;;;13.57;;
1533;SDS011;760;48.822;9.304;2023-03-03T11:40:17;18.50;;;13.90;;
1533;SDS011;760;48.822;9.304;2023-03-03T11:45:46;20.13;;;13.37;;
1533;SDS011;760;48.822;9.304;2023-03-03T11:48:19;18.70;;;11.90;;
1533;SDS011;760;48.822;9.304;2023-03-03T11:51:05;18.47;;;11.90;;
1533;SDS011;760;48.822;9.304;2023-03-03T11:53:49;17.10;;;12.20;;
1533;SDS011;760;48.822;9.304;2023-03-03T12:01:46;16.40;;;11.63;;
1533;SDS011;760;48.822;9.304;2023-03-03T12:04:27;16.60;;;11.57;;
1533;SDS011;760;48.822;9.304;2023-03-03T12:17:50;19.40;;;12.00;;
1533;SDS011;760;48.822;9.304;2023-03-03T12:23:14;16.03;;;12.30;;
1533;SDS011;760;48.822;9.304;2023-03-03T12:25:45;15.50;;;11.10;;
1533;SDS011;760;48.822;9.304;2023-03-03T12:28:36;13.90;;;10.43;;
1533;SDS011;760;48.822;9.304;2023-03-03T12:31:19;12.90;;;10.07;;
1533;SDS011;760;48.822;9.304;2023-03-03T12:39:49;14.50;;;10.47;;
1533;SDS011;760;48.822;9.304;2023-03-03T12:48:17;11.70;;;9.10;;
1533;SDS011;760;48.822;9.304;2023-03-03T12:56:35;16.90;;;10.52;;
1533;SDS011;760;48.822;9.304;2023-03-03T12:59:10;10.75;;;9.60;;
1533;SDS011;760;48.822;9.304;2023-03-03T13:04:15;14.02;;;10.23;;
1533;SDS011;760;48.822;9.304;2023-03-03T13:15:04;14.03;;;10.67;;
1533;SDS011;760;48.822;9.304;2023-03-03T13:17:55;14.48;;;10.98;;
1533;SDS011;760;48.822;9.304;2023-03-03T13:20:33;12.70;;;9.53;;
1533;SDS011;760;48.822;9.304;2023-03-03T13:23:24;16.58;;;11.95;;
1533;SDS011;760;48.822;9.304;2023-03-03T13:28:51;15.20;;;10.90;;
1533;SDS011;760;48.822;9.304;2023-03-03T13:31:39;11.80;;;9.98;;
1533;SDS011;760;48.822;9.304;2023-03-03T13:34:29;14.23;;;9.50;;
1533;SDS011;760;48.822;9.304;2023-03-03T13:37:04;14.00;;;9.80;;
1533;SDS011;760;48.822;9.304;2023-03-03T13:39:38;14.43;;;9.65;;
1533;SDS011;760;48.822;9.304;2023-03-03T13:42:18;12.60;;;10.00;;
1533;SDS011;760;48.822;9.304;2023-03-03T13:44:49;14.90;;;10.57;;
1533;SDS011;760;48.822;9.304;2023-03-03T13:50:22;11.27;;;9.53;;
1533;SDS011;760;48.822;9.304;2023-03-03T13:55:43;12.75;;;10.55;;
1533;SDS011;760;48.822;9.304;2023-03-03T14:08:49;12.80;;;10.07;;
1533;SDS011;760;48.822;9.304;2023-03-03T14:11:44;13.63;;;10.40;;
1533;SDS011;760;48.822;9.304;2023-03-03T14:22:23;15.97;;;11.07;;
1533;SDS011;760;48.822;9.304;2023-03-03T14:25:07;15.45;;;10.82;;
1533;SDS011;760;48.822;9.304;2023-03-03T14:35:34;14.10;;;11.10;;
1533;SDS011;760;48.822;9.304;2023-03-03T14:40:40;16.73;;;10.98;;
1533;SDS011;760;48.822;9.304;2023-03-03T14:43:20;13.35;;;10.27;;
1533;SDS011;760;48.822;9.304;2023-03-03T14:46:17;15.65;;;10.82;;
1533;SDS011;760;48.822;9.304;2023-03-03T14:49:06;12.48;;;9.50;;
1533;SDS011;760;48.822;9.304;2023-03-03T14:52:00;12.45;;;9.85;;
1533;SDS011;760;48.822;9.304;2023-03-03T14:54:53;12.65;;;8.63;;
1533;SDS011;760;48.822;9.304;2023-03-03T14:57:22;14.98;;;10.70;;
1533;SDS011;760;48.822;9.304;2023-03-03T15:18:28;16.45;;;11.10;;
1533;SDS011;760;48.822;9.304;2023-03-03T15:21:02;14.60;;;9.73;;
1533;SDS011;760;48.822;9.304;2023-03-03T15:35:06;12.65;;;9.73;;
1533;SDS011;760;48.822;9.304;2023-03-03T15:37:41;13.48;;;9.35;;
1533;SDS011;760;48.822;9.304;2023-03-03T15:45:49;18.63;;;10.52;;
1533;SDS011;760;48.822;9.304;2023-03-03T15:49:14;16.50;;;9.63;;
1533;SDS011;760;48.822;9.304;2023-03-03T15:52:05;15.93;;;10.90;;
1533;SDS011;760;48.822;9.304;2023-03-03T16:03:35;13.55;;;10.23;;
1533;SDS011;760;48.822;9.304;2023-03-03T16:06:25;11.68;;;8.55;;
1533;SDS011;760;48.822;9.304;2023-03-03T16:24:09;14.85;;;10.43;;
1533;SDS011;760;48.822;9.304;2023-03-03T16:26:56;17.92;;;10.23;;
1533;SDS011;760;48.822;9.304;2023-03-03T16:29:39;16.80;;;10.98;;
1533;SDS011;760;48.822;9.304;2023-03-03T16:32:47;14.52;;;10.05;;
1533;SDS011;760;48.822;9.304;2023-03-03T16:35:24;17.63;;;11.55;;
1533;SDS011;760;48.822;9.304;2023-03-03T16:38:00;16.92;;;11.70;;
1533;SDS011;760;48.822;9.304;2023-03-03T16:40:48;14.18;;;9.77;;
1533;SDS011;760;48.822;9.304;2023-03-03T16:43:26;13.95;;;9.68;;
1533;SDS011;760;48.822;9.304;2023-03-03T16:46:10;17.48;;;10.02;;
1533;SDS011;760;48.822;9.304;2023-03-03T16:49:00;12.80;;;9.00;;
1533;SDS011;760;48.822;9.304;2023-03-03T16:51:47;14.73;;;10.18;;
1533;SDS011;760;48.822;9.304;2023-03-03T16:57:52;17.70;;;11.43;;
1533;SDS011;760;48.822;9.304;2023-03-03T17:00:28;18.02;;;10.38;;
1533;SDS011;760;48.822;9.304;2023-03-03T17:06:15;14.75;;;10.82;;
1533;SDS011;760;48.822;9.304;2023-03-03T17:09:32;16.65;;;9.65;;
1533;SDS011;760;48.822;9.304;2023-03-03T17:11:49;17.20;;;11.60;;
1533;SDS011;760;48.822;9.304;2023-03-03T17:14:38;23.45;;;12.98;;
1533;SDS011;760;48.822;9.304;2023-03-03T17:17:17;15.02;;;10.20;;
1533;SDS011;760;48.822;9.304;2023-03-03T17:20:22;18.27;;;12.10;;
1533;SDS011;760;48.822;9.304;2023-03-03T17:30:30;24.73;;;11.82;;
1533;SDS011;760;48.822;9.304;2023-03-03T17:33:06;22.70;;;11.15;;
1533;SDS011;760;48.822;9.304;2023-03-03T17:41:43;18.40;;;11.73;;
1533;SDS011;760;48.822;9.304;2023-03-03T18:01:15;19.75;;;11.68;;
1533;SDS011;760;48.822;9.304;2023-03-03T18:08:46;22.17;;;13.30;;
1533;SDS011;760;48.822;9.304;2023-03-03T18:14:34;19.10;;;13.48;;
1533;SDS011;760;48.822;9.304;2023-03-03T18:17:20;17.10;;;10.73;;
1533;SDS011;760;48.822;9.304;2023-03-03T18:23:01;15.60;;;9.70;;
1533;SDS011;760;48.822;9.304;2023-03-03T18:26:01;13.60;;;12.02;;
1533;SDS011;760;48.822;9.304;2023-03-03T18:28:43;20.50;;;12.88;;
1533;SDS011;760;48.822;9.304;2023-03-03T18:31:18;17.13;;;11.60;;
1533;SDS011;760;48.822;9.304;2023-03-03T18:33:58;13.73;;;10.43;;
1533;SDS011;760;48.822;9.304;2023-03-03T18:38:56;18.63;;;13.97;;
1533;SDS011;760;48.822;9.304;2023-03-03T18:41:25;21.70;;;13.38;;
1533;SDS011;760;48.822;9.304;2023-03-03T18:43:55;16.08;;;11.07;;
1533;SDS011;760;48.822;9.304;2023-03-03T18:46:48;20.33;;;12.95;;
1533;SDS011;760;48.822;9.304;2023-03-03T18:49:15;16.00;;;11.45;;
1533;SDS011;760;48.822;9.304;2023-03-03T18:56:44;19.40;;;10.82;;
1533;SDS011;760;48.822;9.304;2023-03-03T18:59:30;19.30;;;10.50;;
1533;SDS011;760;48.822;9.304;2023-03-03T19:02:50;15.23;;;10.10;;
1533;SDS011;760;48.822;9.304;2023-03-03T19:05:33;14.00;;;9.63;;
1533;SDS011;760;48.822;9.304;2023-03-03T19:10:46;19.83;;;12.80;;
1533;SDS011;760;48.822;9.304;2023-03-03T19:16:09;14.50;;;11.45;;
1533;SDS011;760;48.822;9.304;2023-03-03T19:21:30;19.45;;;13.40;;
1533;SDS011;760;48.822;9.304;2023-03-03T19:24:05;18.05;;;10.77;;
1533;SDS011;760;48.822;9.304;2023-03-03T19:34:59;15.48;;;12.52;;
1533;SDS011;760;48.822;9.304;2023-03-03T19:42:37;23.92;;;15.27;;
1533;SDS011;760;48.822;9.304;2023-03-03T19:50:53;18.00;;;13.00;;
1533;SDS011;760;48.822;9.304;2023-03-03T19:53:42;25.00;;;13.65;;
1533;SDS011;760;48.822;9.304;2023-03-03T20:01:46;18.30;;;13.00;;
1533;SDS011;760;48.822;9.304;2023-03-03T20:07:11;21.50;;;13.82;;
1533;SDS011;760;48.822;9.304;2023-03-03T20:12:41;24.23;;;14.32;;
1533;SDS011;760;48.822;9.304;2023-03-03T20:23:41;19.95;;;13.40;;
1533;SDS011;760;48.822;9.304;2023-03-03T20:29:31;23.20;;;12.63;;
1533;SDS011;760;48.822;9.304;2023-03-03T20:35:16;20.75;;;14.80;;
1533;SDS011;760;48.822;9.304;2023-03-03T20:43:16;18.30;;;12.68;;
1533;SDS011;760;48.822;9.304;2023-03-03T20:46:06;18.90;;;12.00;;
1533;SDS011;760;48.822;9.304;2023-03-03T20:53:42;19.40;;;14.13;;
1533;SDS011;760;48.822;9.304;2023-03-03T20:56:23;14.68;;;11.40;;
1533;SDS011;760;48.822;9.304;2023-03-03T21:04:22;19.97;;;14.23;;
1533;SDS011;760;48.822;9.304;2023-03-03T21:06:50;19.52;;;11.95;;
1533;SDS011;760;48.822;9.304;2023-03-03T21:09:23;22.77;;;13.02;;
1533;SDS011;760;48.822;9.304;2023-03-03T21:11:56;16.02;;;13.73;;
1533;SDS011;760;48.822;9.304;2023-03-03T21:14:26;17.50;;;13.70;;
1533;SDS011;760;48.822;9.304;2023-03-03T21:16:58;21.38;;;13.35;;
1533;SDS011;760;48.822;9.304;2023-03-03T21:21:52;19.87;;;13.07;;
1533;SDS011;760;48.822;9.304;2023-03-03T21:24:18;18.00;;;12.23;;
1533;SDS011;760;48.822;9.304;2023-03-03T21:29:27;16.60;;;10.45;;
1533;SDS011;760;48.822;9.304;2023-03-03T21:32:01;21.85;;;13.05;;
1533;SDS011;760;48.822;9.304;2023-03-03T21:34:30;14.90;;;11.77;;
1533;SDS011;760;48.822;9.304;2023-03-03T21:36:58;19.23;;;12.65;;
1533;SDS011;760;48.822;9.304;2023-03-03T21:42:04;16.80;;;11.70;;
1533;SDS011;760;48.822;9.304;2023-03-03T21:44:32;23.02;;;11.60;;
1533;SDS011;760;48.822;9.304;2023-03-03T21:47:10;20.42;;;11.50;;
1533;SDS011;760;48.822;9.304;2023-03-03T21:49:51;20.05;;;12.52;;
1533;SDS011;760;48.822;9.304;2023-03-03T21:52:17;16.53;;;11.90;;
1533;SDS011;760;48.822;9.304;2023-03-03T21:54:45;16.88;;;12.07;;
1533;SDS011;760;48.822;9.304;2023-03-03T21:57:12;18.33;;;12.55;;
1533;SDS011;760;48.822;9.304;2023-03-03T21:59:38;18.93;;;11.80;;
1533;SDS011;760;48.822;9.304;2023-03-03T22:02:04;17.48;;;12.70;;
1533;SDS011;760;48.822;9.304;2023-03-03T22:04:31;18.35;;;12.95;;
1533;SDS011;760;48.822;9.304;2023-03-03T22:06:57;20.15;;;12.38;;
1533;SDS011;760;48.822;9.304;2023-03-03T22:09:22;15.13;;;11.47;;
1533;SDS011;760;48.822;9.304;2023-03-03T22:11:48;23.03;;;12.50;;
1533;SDS011;760;48.822;9.304;2023-03-03T22:14:14;15.17;;;10.23;;
1533;SDS011;760;48.822;9.304;2023-03-03T22:16:40;15.50;;;11.20;;
1533;SDS011;760;48.822;9.304;2023-03-03T22:19:06;18.70;;;11.97;;
1533;SDS011;760;48.822;9.304;2023-03-03T22:21:35;16.88;;;10.90;;
1533;SDS011;760;48.822;9.304;2023-03-03T22:24:01;21.40;;;13.27;;
1533;SDS011;760;48.822;9.304;2023-03-03T22:26:27;19.03;;;12.63;;
1533;SDS011;760;48.822;9.304;2023-03-03T22:28:53;21.17;;;13.93;;
1533;SDS011;760;48.822;9.304;2023-03-03T22:31:18;15.80;;;11.00;;
1533;SDS011;760;48.822;9.304;2023-03-03T22:33:44;14.00;;;10.83;;
1533;SDS011;760;48.822;9.304;2023-03-03T22:36:11;14.80;;;11.45;;
1533;SDS011;760;48.822;9.304;2023-03-03T22:38:36;17.07;;;11.20;;
1533;SDS011;760;48.822;9.304;2023-03-03T22:41:02;19.40;;;11.87;;
1533;SDS011;760;48.822;9.304;2023-03-03T22:43:28;14.60;;;11.07;;
1533;SDS011;760;48.822;9.304;2023-03-03T22:45:54;15.73;;;11.73;;
1533;SDS011;760;48.822;9.304;2023-03-03T22:48:20;17.23;;;12.48;;
1533;SDS011;760;48.822;9.304;2023-03-03T22:50:48;22.38;;;11.73;;
1533;SDS011;760;48.822;9.304;2023-03-03T22:53:17;15.50;;;10.63;;
1533;SDS011;760;48.822;9.304;2023-03-03T22:55:43;26.17;;;14.63;;
1533;SDS011;760;48.822;9.304;2023-03-03T22:58:09;19.47;;;12.27;;
